sensor_id;sensor_type;location;lat;lon;timestamp;pressure;altitude;pressure_sealevel;temperature;humidity
3260;BME280;68938;48.150;14.004;2023-12-20T00:01:03;98119.78;;;2.66;71.15
3260;BME280;68938;48.150;14.004;2023-12-20T00:03:30;98114.72;;;2.69;71.07
3260;BME280;68938;48.150;14.004;2023-12-20T00:06:08;98113.06;;;2.77;71.49
3260;BME280;68938;48.150;14.004;2023-12-20T00:08:36;98121.47;;;2.79;71.39
3260;BME280;68938;48.150;14.004;2023-12-20T00:11:03;98105.44;;;2.85;71.07
3260;BME280;68938;48.150;14.004;2023-12-20T00:13:30;98107.16;;;2.91;71.14
3260;BME280;68938;48.150;14.004;2023-12-20T00:15:56;98097.00;;;3.00;71.27
3260;BME280;68938;48.150;14.004;2023-12-20T00:18:23;98094.47;;;3.04;70.94
3260;BME280;68938;48.150;14.004;2023-12-20T00:20:50;98098.69;;;3.05;70.94
3260;BME280;68938;48.150;14.004;2023-12-20T00:23:17;98096.97;;;3.14;70.81
3260;BME280;68938;48.150;14.004;2023-12-20T00:25:44;98082.63;;;3.20;70.78
3260;BME280;68938;48.150;14.004;2023-12-20T00:28:11;98075.88;;;3.25;71.08
3260;BME280;68938;48.150;14.004;2023-12-20T00:30:38;98078.38;;;3.31;70.64
3260;BME280;68938;48.150;14.004;2023-12-20T00:33:05;98074.97;;;3.37;70.73
3260;BME280;68938;48.150;14.004;2023-12-20T00:35:32;98069.91;;;3.40;70.70
3260;BME280;68938;48.150;14.004;2023-12-20T00:37:59;98069.06;;;3.43;70.21
3260;BME280;68938;48.150;14.004;2023-12-20T00:40:26;98071.56;;;3.47;70.80
3260;BME280;68938;48.150;14.004;2023-12-20T00:42:53;98066.50;;;3.50;70.97
3260;BME280;68938;48.150;14.004;2023-12-20T00:45:20;98061.44;;;3.41;70.60
3260;BME280;68938;48.150;14.004;2023-12-20T00:47:46;98057.22;;;3.45;71.06
3260;BME280;68938;48.150;14.004;2023-12-20T00:50:14;98050.44;;;3.50;70.88
3260;BME280;68938;48.150;14.004;2023-12-20T00:52:41;98054.69;;;3.49;71.00
3260;BME280;68938;48.150;14.004;2023-12-20T00:55:08;98054.69;;;3.52;70.85
3260;BME280;68938;48.150;14.004;2023-12-20T00:57:35;98050.44;;;3.56;70.49
3260;BME280;68938;48.150;14.004;2023-12-20T01:00:02;98049.63;;;3.49;70.07
3260;BME280;68938;48.150;14.004;2023-12-20T01:02:29;98044.53;;;3.48;70.39
3260;BME280;68938;48.150;14.004;2023-12-20T01:04:56;98037.78;;;3.41;70.80
3260;BME280;68938;48.150;14.004;2023-12-20T01:07:23;98025.97;;;3.43;70.77
3260;BME280;68938;48.150;14.004;2023-12-20T01:09:49;98022.56;;;3.53;70.66
3260;BME280;68938;48.150;14.004;2023-12-20T01:12:16;98029.28;;;3.55;70.52
3260;BME280;68938;48.150;14.004;2023-12-20T01:14:43;98026.75;;;3.54;69.92
3260;BME280;68938;48.150;14.004;2023-12-20T01:17:10;98028.47;;;3.47;69.85
3260;BME280;68938;48.150;14.004;2023-12-20T01:19:37;98025.13;;;3.44;69.99
3260;BME280;68938;48.150;14.004;2023-12-20T01:22:04;98020.88;;;3.41;70.20
3260;BME280;68938;48.150;14.004;2023-12-20T01:24:31;98020.88;;;3.47;70.02
3260;BME280;68938;48.150;14.004;2023-12-20T01:26:58;98014.09;;;3.48;69.99
3260;BME280;68938;48.150;14.004;2023-12-20T01:29:25;98014.13;;;3.49;70.22
3260;BME280;68938;48.150;14.004;2023-12-20T01:31:52;98005.63;;;3.52;70.13
3260;BME280;68938;48.150;14.004;2023-12-20T01:34:19;97990.44;;;3.53;70.11
3260;BME280;68938;48.150;14.004;2023-12-20T01:36:46;97990.41;;;3.56;70.02
3260;BME280;68938;48.150;14.004;2023-12-20T01:39:13;97979.44;;;3.59;70.07
3260;BME280;68938;48.150;14.004;2023-12-20T01:41:53;98003.06;;;3.61;69.88
3260;BME280;68938;48.150;14.004;2023-12-20T01:44:20;98001.34;;;3.65;70.08
3260;BME280;68938;48.150;14.004;2023-12-20T01:46:48;97992.88;;;3.69;69.98
3260;BME280;68938;48.150;14.004;2023-12-20T01:49:15;97990.34;;;3.73;70.03
3260;BME280;68938;48.150;14.004;2023-12-20T01:51:43;97986.09;;;3.77;70.26
3260;BME280;68938;48.150;14.004;2023-12-20T01:54:10;97991.16;;;3.80;70.33
3260;BME280;68938;48.150;14.004;2023-12-20T01:56:38;97977.63;;;3.81;70.37
3260;BME280;68938;48.150;14.004;2023-12-20T01:59:07;97982.69;;;3.81;70.02
3260;BME280;68938;48.150;14.004;2023-12-20T02:01:34;97985.25;;;3.76;70.00
3260;BME280;68938;48.150;14.004;2023-12-20T02:04:02;97977.63;;;3.81;70.56
3260;BME280;68938;48.150;14.004;2023-12-20T02:06:30;97975.94;;;3.80;70.46
3260;BME280;68938;48.150;14.004;2023-12-20T02:08:58;97970.00;;;3.84;70.30
3260;BME280;68938;48.150;14.004;2023-12-20T02:11:25;97961.47;;;3.91;70.23
3260;BME280;68938;48.150;14.004;2023-12-20T02:13:53;97958.97;;;3.88;70.82
3260;BME280;68938;48.150;14.004;2023-12-20T02:16:21;97934.41;;;3.93;70.83
3260;BME280;68938;48.150;14.004;2023-12-20T02:18:49;97936.03;;;4.03;70.60
3260;BME280;68938;48.150;14.004;2023-12-20T02:21:16;97931.72;;;4.10;70.41
3260;BME280;68938;48.150;14.004;2023-12-20T02:23:43;97927.47;;;4.17;70.23
3260;BME280;68938;48.150;14.004;2023-12-20T02:26:10;97923.25;;;4.16;70.19
3260;BME280;68938;48.150;14.004;2023-12-20T02:28:37;97910.50;;;4.20;70.41
3260;BME280;68938;48.150;14.004;2023-12-20T02:31:04;97907.94;;;4.28;70.77
3260;BME280;68938;48.150;14.004;2023-12-20T02:33:31;97892.66;;;4.33;70.40
3260;BME280;68938;48.150;14.004;2023-12-20T02:35:58;97881.59;;;4.38;70.06
3260;BME280;68938;48.150;14.004;2023-12-20T02:38:25;97875.59;;;4.44;70.30
3260;BME280;68938;48.150;14.004;2023-12-20T02:40:51;97876.41;;;4.47;70.36
3260;BME280;68938;48.150;14.004;2023-12-20T02:43:18;97876.38;;;4.52;70.15
3260;BME280;68938;48.150;14.004;2023-12-20T02:45:45;97873.78;;;4.57;70.34
3260;BME280;68938;48.150;14.004;2023-12-20T02:48:12;97865.28;;;4.61;70.71
3260;BME280;68938;48.150;14.004;2023-12-20T02:50:39;97856.75;;;4.66;70.61
3260;BME280;68938;48.150;14.004;2023-12-20T02:53:06;97860.91;;;4.73;70.53
3260;BME280;68938;48.150;14.004;2023-12-20T02:55:33;97859.19;;;4.77;70.31
3260;BME280;68938;48.150;14.004;2023-12-20T02:58:00;97865.06;;;4.82;70.40
3260;BME280;68938;48.150;14.004;2023-12-20T03:00:27;97862.47;;;4.85;70.24
3260;BME280;68938;48.150;14.004;2023-12-20T03:02:53;97854.81;;;4.90;70.26
3260;BME280;68938;48.150;14.004;2023-12-20T03:05:20;97860.69;;;4.92;70.32
3260;BME280;68938;48.150;14.004;2023-12-20T03:07:47;97862.41;;;4.91;70.24
3260;BME280;68938;48.150;14.004;2023-12-20T03:10:15;97863.19;;;4.96;70.11
3260;BME280;68938;48.150;14.004;2023-12-20T03:12:52;97842.91;;;4.93;69.86
3260;BME280;68938;48.150;14.004;2023-12-20T03:15:19;97844.63;;;4.90;70.59
3260;BME280;68938;48.150;14.004;2023-12-20T03:17:46;97842.97;;;4.87;70.26
3260;BME280;68938;48.150;14.004;2023-12-20T03:20:13;97844.63;;;4.90;70.30
3260;BME280;68938;48.150;14.004;2023-12-20T03:22:40;97837.72;;;5.03;70.14
3260;BME280;68938;48.150;14.004;2023-12-20T03:25:07;97839.34;;;5.07;70.28
3260;BME280;68938;48.150;14.004;2023-12-20T03:27:37;97838.44;;;5.11;69.83
3260;BME280;68938;48.150;14.004;2023-12-20T03:30:04;97853.63;;;5.15;69.84
3260;BME280;68938;48.150;14.004;2023-12-20T03:32:32;97855.25;;;5.21;69.67
3260;BME280;68938;48.150;14.004;2023-12-20T03:34:59;97844.25;;;5.19;69.78
3260;BME280;68938;48.150;14.004;2023-12-20T03:37:26;97858.63;;;5.23;70.11
3260;BME280;68938;48.150;14.004;2023-12-20T03:39:53;97857.72;;;5.26;69.84
3260;BME280;68938;48.150;14.004;2023-12-20T03:42:20;97855.16;;;5.29;70.30
3260;BME280;68938;48.150;14.004;2023-12-20T03:44:47;97849.16;;;5.34;70.20
3260;BME280;68938;48.150;14.004;2023-12-20T03:47:14;97853.31;;;5.38;70.07
3260;BME280;68938;48.150;14.004;2023-12-20T03:49:40;97857.53;;;5.41;70.05
3260;BME280;68938;48.150;14.004;2023-12-20T03:52:07;97849.88;;;5.44;70.15
3260;BME280;68938;48.150;14.004;2023-12-20T03:54:38;97835.41;;;5.47;70.28
3260;BME280;68938;48.150;14.004;2023-12-20T03:57:05;97831.16;;;5.46;70.29
3260;BME280;68938;48.150;14.004;2023-12-20T03:59:36;97837.88;;;5.52;70.68
3260;BME280;68938;48.150;14.004;2023-12-20T04:02:04;97822.53;;;5.58;70.46
3260;BME280;68938;48.150;14.004;2023-12-20T04:04:31;97818.22;;;5.62;70.26
3260;BME280;68938;48.150;14.004;2023-12-20T04:06:58;97811.34;;;5.67;70.26
3260;BME280;68938;48.150;14.004;2023-12-20T04:09:25;97818.94;;;5.72;70.03
3260;BME280;68938;48.150;14.004;2023-12-20T04:11:52;97823.97;;;5.73;70.04
3260;BME280;68938;48.150;14.004;2023-12-20T04:14:18;97826.47;;;5.76;69.72
3260;BME280;68938;48.150;14.004;2023-12-20T04:16:45;97817.13;;;5.78;69.91
3260;BME280;68938;48.150;14.004;2023-12-20T04:19:13;97817.09;;;5.80;69.40
3260;BME280;68938;48.150;14.004;2023-12-20T04:21:40;97825.59;;;5.79;68.97
3260;BME280;68938;48.150;14.004;2023-12-20T04:24:07;97834.03;;;5.81;68.98
3260;BME280;68938;48.150;14.004;2023-12-20T04:26:34;97840.03;;;5.78;68.82
3260;BME280;68938;48.150;14.004;2023-12-20T04:29:01;97836.75;;;5.72;69.46
3260;BME280;68938;48.150;14.004;2023-12-20T04:31:28;97837.53;;;5.74;69.61
3260;BME280;68938;48.150;14.004;2023-12-20T04:33:55;97841.84;;;5.72;69.68
3260;BME280;68938;48.150;14.004;2023-12-20T04:36:22;97842.56;;;5.78;69.84
3260;BME280;68938;48.150;14.004;2023-12-20T04:38:49;97836.78;;;5.67;69.98
3260;BME280;68938;48.150;14.004;2023-12-20T04:41:16;97835.84;;;5.74;70.07
3260;BME280;68938;48.150;14.004;2023-12-20T04:43:43;97843.38;;;5.82;69.95
3260;BME280;68938;48.150;14.004;2023-12-20T04:46:10;97844.22;;;5.82;69.16
3260;BME280;68938;48.150;14.004;2023-12-20T04:48:37;97845.88;;;5.83;69.31
3260;BME280;68938;48.150;14.004;2023-12-20T04:51:04;97853.47;;;5.86;69.17
3260;BME280;68938;48.150;14.004;2023-12-20T04:53:31;97857.69;;;5.87;69.31
3260;BME280;68938;48.150;14.004;2023-12-20T04:55:58;97861.06;;;5.88;69.04
3260;BME280;68938;48.150;14.004;2023-12-20T04:58:24;97869.53;;;5.90;69.13
3260;BME280;68938;48.150;14.004;2023-12-20T05:00:52;97864.44;;;5.90;69.57
3260;BME280;68938;48.150;14.004;2023-12-20T05:03:19;97867.81;;;5.93;69.49
3260;BME280;68938;48.150;14.004;2023-12-20T05:05:46;97873.72;;;5.94;69.43
3260;BME280;68938;48.150;14.004;2023-12-20T05:08:12;97873.69;;;5.97;69.25
3260;BME280;68938;48.150;14.004;2023-12-20T05:10:40;97881.38;;;5.96;69.13
3260;BME280;68938;48.150;14.004;2023-12-20T05:13:07;97894.09;;;5.94;69.29
3260;BME280;68938;48.150;14.004;2023-12-20T05:15:34;97894.88;;;5.99;69.33
3260;BME280;68938;48.150;14.004;2023-12-20T05:18:01;97903.34;;;6.00;69.65
3260;BME280;68938;48.150;14.004;2023-12-20T05:20:27;97904.97;;;6.04;69.41
3260;BME280;68938;48.150;14.004;2023-12-20T05:22:54;97910.91;;;6.06;69.69
3260;BME280;68938;48.150;14.004;2023-12-20T05:25:21;97915.97;;;6.07;69.80
3260;BME280;68938;48.150;14.004;2023-12-20T05:27:48;97922.69;;;6.11;69.69
3260;BME280;68938;48.150;14.004;2023-12-20T05:30:16;97915.88;;;6.12;69.67
3260;BME280;68938;48.150;14.004;2023-12-20T05:32:43;97917.56;;;6.13;69.72
3260;BME280;68938;48.150;14.004;2023-12-20T05:35:10;97919.50;;;5.97;69.54
3260;BME280;68938;48.150;14.004;2023-12-20T05:37:37;97911.69;;;6.08;69.71
3260;BME280;68938;48.150;14.004;2023-12-20T05:40:04;97925.22;;;6.13;69.58
3260;BME280;68938;48.150;14.004;2023-12-20T05:42:32;97920.03;;;6.19;69.34
3260;BME280;68938;48.150;14.004;2023-12-20T05:44:59;97897.03;;;6.22;69.73
3260;BME280;68938;48.150;14.004;2023-12-20T05:47:26;97915.69;;;6.26;69.27
3260;BME280;68938;48.150;14.004;2023-12-20T05:49:53;97922.47;;;6.25;69.28
3260;BME280;68938;48.150;14.004;2023-12-20T05:52:20;97918.09;;;6.33;68.93
3260;BME280;68938;48.150;14.004;2023-12-20T05:54:47;97924.84;;;6.36;69.00
3260;BME280;68938;48.150;14.004;2023-12-20T05:57:14;97916.28;;;6.40;68.83
3260;BME280;68938;48.150;14.004;2023-12-20T05:59:41;97909.50;;;6.39;68.79
3260;BME280;68938;48.150;14.004;2023-12-20T06:02:08;97903.59;;;6.37;69.40
3260;BME280;68938;48.150;14.004;2023-12-20T06:04:35;97903.75;;;6.29;69.13
3260;BME280;68938;48.150;14.004;2023-12-20T06:07:02;97902.75;;;6.36;68.96
3260;BME280;68938;48.150;14.004;2023-12-20T06:09:29;97892.38;;;6.47;69.38
3260;BME280;68938;48.150;14.004;2023-12-20T06:11:57;97895.63;;;6.57;69.04
3260;BME280;68938;48.150;14.004;2023-12-20T06:14:24;97906.44;;;6.68;69.28
3260;BME280;68938;48.150;14.004;2023-12-20T06:16:51;97902.88;;;6.77;68.96
3260;BME280;68938;48.150;14.004;2023-12-20T06:19:18;97923.16;;;6.83;68.97
3260;BME280;68938;48.150;14.004;2023-12-20T06:21:45;97923.06;;;6.89;68.73
3260;BME280;68938;48.150;14.004;2023-12-20T06:24:12;97935.66;;;6.98;68.64
3260;BME280;68938;48.150;14.004;2023-12-20T06:26:39;97931.22;;;7.08;68.31
3260;BME280;68938;48.150;14.004;2023-12-20T06:29:06;97925.84;;;7.22;68.45
3260;BME280;68938;48.150;14.004;2023-12-20T06:31:33;97930.66;;;7.35;67.10
3260;BME280;68938;48.150;14.004;2023-12-20T06:34:00;97937.41;;;7.38;65.73
3260;BME280;68938;48.150;14.004;2023-12-20T06:36:27;97937.16;;;7.50;65.27
3260;BME280;68938;48.150;14.004;2023-12-20T06:38:54;97936.50;;;7.41;64.83
3260;BME280;68938;48.150;14.004;2023-12-20T06:41:21;97955.38;;;7.74;64.54
3260;BME280;68938;48.150;14.004;2023-12-20T06:43:48;97954.00;;;7.96;64.47
3260;BME280;68938;48.150;14.004;2023-12-20T06:46:16;97959.06;;;8.38;63.72
3260;BME280;68938;48.150;14.004;2023-12-20T06:48:44;97966.19;;;8.60;63.36
3260;BME280;68938;48.150;14.004;2023-12-20T06:51:16;97982.34;;;8.62;63.59
3260;BME280;68938;48.150;14.004;2023-12-20T06:53:43;97981.72;;;8.86;63.70
3260;BME280;68938;48.150;14.004;2023-12-20T06:56:11;97997.16;;;8.47;65.13
3260;BME280;68938;48.150;14.004;2023-12-20T06:58:40;97990.53;;;8.01;68.23
3260;BME280;68938;48.150;14.004;2023-12-20T07:01:14;97996.34;;;8.06;69.92
3260;BME280;68938;48.150;14.004;2023-12-20T07:03:42;97990.63;;;8.34;68.84
3260;BME280;68938;48.150;14.004;2023-12-20T07:06:09;97995.81;;;8.31;68.77
3260;BME280;68938;48.150;14.004;2023-12-20T07:08:36;97995.06;;;8.27;69.13
3260;BME280;68938;48.150;14.004;2023-12-20T07:11:03;98000.13;;;7.90;70.45
3260;BME280;68938;48.150;14.004;2023-12-20T07:13:30;98012.88;;;7.92;71.37
3260;BME280;68938;48.150;14.004;2023-12-20T07:15:57;98013.75;;;7.89;71.73
3260;BME280;68938;48.150;14.004;2023-12-20T07:18:24;98021.25;;;7.98;71.62
3260;BME280;68938;48.150;14.004;2023-12-20T07:20:51;98028.06;;;7.96;72.23
3260;BME280;68938;48.150;14.004;2023-12-20T07:23:18;98036.94;;;7.80;72.90
3260;BME280;68938;48.150;14.004;2023-12-20T07:25:51;98037.69;;;7.85;72.85
3260;BME280;68938;48.150;14.004;2023-12-20T07:28:18;98036.56;;;7.98;71.93
3260;BME280;68938;48.150;14.004;2023-12-20T07:30:45;98040.06;;;7.94;72.48
3260;BME280;68938;48.150;14.004;2023-12-20T07:33:12;98040.25;;;7.85;73.23
3260;BME280;68938;48.150;14.004;2023-12-20T07:35:39;98054.88;;;7.77;73.66
3260;BME280;68938;48.150;14.004;2023-12-20T07:38:06;98042.56;;;7.96;73.29
3260;BME280;68938;48.150;14.004;2023-12-20T07:40:33;98045.78;;;7.64;74.04
3260;BME280;68938;48.150;14.004;2023-12-20T07:43:00;98047.88;;;7.43;74.05
3260;BME280;68938;48.150;14.004;2023-12-20T07:45:27;98049.84;;;7.72;73.11
3260;BME280;68938;48.150;14.004;2023-12-20T07:47:54;98048.41;;;7.60;72.97
3260;BME280;68938;48.150;14.004;2023-12-20T07:50:21;98056.38;;;7.44;73.57
3260;BME280;68938;48.150;14.004;2023-12-20T07:52:48;98063.59;;;7.65;72.63
3260;BME280;68938;48.150;14.004;2023-12-20T07:55:15;98059.22;;;7.73;72.55
3260;BME280;68938;48.150;14.004;2023-12-20T07:57:42;98063.38;;;7.76;72.43
3260;BME280;68938;48.150;14.004;2023-12-20T08:00:09;98072.91;;;7.69;72.69
3260;BME280;68938;48.150;14.004;2023-12-20T08:02:37;98071.13;;;7.73;72.61
3260;BME280;68938;48.150;14.004;2023-12-20T08:05:03;98076.19;;;7.74;72.63
3260;BME280;68938;48.150;14.004;2023-12-20T08:07:30;98079.44;;;7.82;72.25
3260;BME280;68938;48.150;14.004;2023-12-20T08:09:57;98091.28;;;7.87;72.21
3260;BME280;68938;48.150;14.004;2023-12-20T08:12:25;98086.72;;;7.57;72.88
3260;BME280;68938;48.150;14.004;2023-12-20T08:14:52;98084.63;;;7.31;74.34
3260;BME280;68938;48.150;14.004;2023-12-20T08:17:18;98084.44;;;7.44;73.77
3260;BME280;68938;48.150;14.004;2023-12-20T08:19:45;98091.94;;;7.51;74.15
3260;BME280;68938;48.150;14.004;2023-12-20T08:22:12;98085.78;;;7.63;73.66
3260;BME280;68938;48.150;14.004;2023-12-20T08:24:39;98088.44;;;7.57;74.16
3260;BME280;68938;48.150;14.004;2023-12-20T08:27:06;98086.72;;;7.59;74.30
3260;BME280;68938;48.150;14.004;2023-12-20T08:29:33;98097.72;;;7.63;74.00
3260;BME280;68938;48.150;14.004;2023-12-20T08:32:00;98084.63;;;7.78;73.23
3260;BME280;68938;48.150;14.004;2023-12-20T08:34:27;98088.75;;;7.87;72.95
3260;BME280;68938;48.150;14.004;2023-12-20T08:36:54;98085.31;;;7.88;73.09
3260;BME280;68938;48.150;14.004;2023-12-20T08:39:21;98085.53;;;7.77;73.19
3260;BME280;68938;48.150;14.004;2023-12-20T08:41:48;98095.47;;;7.89;73.21
3260;BME280;68938;48.150;14.004;2023-12-20T08:44:15;98099.78;;;7.87;73.39
3260;BME280;68938;48.150;14.004;2023-12-20T08:46:43;98099.59;;;7.96;73.06
3260;BME280;68938;48.150;14.004;2023-12-20T08:49:10;98104.19;;;7.80;73.59
3260;BME280;68938;48.150;14.004;2023-12-20T08:51:37;98097.97;;;7.94;73.99
3260;BME280;68938;48.150;14.004;2023-12-20T08:54:04;98103.72;;;8.03;73.23
3260;BME280;68938;48.150;14.004;2023-12-20T08:56:31;98096.44;;;8.25;72.18
3260;BME280;68938;48.150;14.004;2023-12-20T08:58:58;98094.59;;;7.92;73.21
3260;BME280;68938;48.150;14.004;2023-12-20T09:01:24;98100.97;;;8.13;73.14
3260;BME280;68938;48.150;14.004;2023-12-20T09:03:51;98092.53;;;8.09;73.19
3260;BME280;68938;48.150;14.004;2023-12-20T09:06:19;98097.63;;;8.09;73.54
3260;BME280;68938;48.150;14.004;2023-12-20T09:08:45;98088.94;;;8.18;73.33
3260;BME280;68938;48.150;14.004;2023-12-20T09:11:12;98090.16;;;8.42;72.43
3260;BME280;68938;48.150;14.004;2023-12-20T09:13:39;98088.25;;;8.51;72.21
3260;BME280;68938;48.150;14.004;2023-12-20T09:16:06;98090.72;;;8.54;72.21
3260;BME280;68938;48.150;14.004;2023-12-20T09:18:33;98088.06;;;8.59;72.03
3260;BME280;68938;48.150;14.004;2023-12-20T09:21:00;98093.97;;;8.63;72.11
3260;BME280;68938;48.150;14.004;2023-12-20T09:23:27;98091.19;;;8.72;72.14
3260;BME280;68938;48.150;14.004;2023-12-20T09:25:54;98091.50;;;8.58;72.75
3260;BME280;68938;48.150;14.004;2023-12-20T09:28:23;98088.34;;;8.47;72.86
3260;BME280;68938;48.150;14.004;2023-12-20T09:30:50;98090.34;;;8.71;72.20
3260;BME280;68938;48.150;14.004;2023-12-20T09:33:17;98098.81;;;8.73;72.51
3260;BME280;68938;48.150;14.004;2023-12-20T09:35:45;98094.34;;;8.83;72.25
3260;BME280;68938;48.150;14.004;2023-12-20T09:38:12;98096.19;;;8.76;72.74
3260;BME280;68938;48.150;14.004;2023-12-20T09:40:41;98093.91;;;8.64;73.28
3260;BME280;68938;48.150;14.004;2023-12-20T09:43:11;98085.22;;;8.71;73.12
3260;BME280;68938;48.150;14.004;2023-12-20T09:45:41;98078.03;;;8.51;74.25
3260;BME280;68938;48.150;14.004;2023-12-20T09:48:10;98069.44;;;8.54;73.84
3260;BME280;68938;48.150;14.004;2023-12-20T09:50:38;98070.78;;;8.30;74.55
3260;BME280;68938;48.150;14.004;2023-12-20T09:53:05;98060.56;;;8.30;73.92
3260;BME280;68938;48.150;14.004;2023-12-20T09:55:36;98052.88;;;8.31;74.47
3260;BME280;68938;48.150;14.004;2023-12-20T09:58:03;98053.44;;;8.46;74.52
3260;BME280;68938;48.150;14.004;2023-12-20T10:00:30;98045.56;;;8.55;74.12
3260;BME280;68938;48.150;14.004;2023-12-20T10:02:58;98056.22;;;8.72;73.83
3260;BME280;68938;48.150;14.004;2023-12-20T10:05:33;98049.72;;;8.59;74.57
3260;BME280;68938;48.150;14.004;2023-12-20T10:08:01;98048.72;;;8.65;74.87
3260;BME280;68938;48.150;14.004;2023-12-20T10:10:29;98048.22;;;8.86;74.23
3260;BME280;68938;48.150;14.004;2023-12-20T10:13:11;98048.91;;;8.93;74.40
3260;BME280;68938;48.150;14.004;2023-12-20T10:15:39;98053.09;;;8.95;73.71
3260;BME280;68938;48.150;14.004;2023-12-20T10:18:06;98047.47;;;8.83;74.90
3260;BME280;68938;48.150;14.004;2023-12-20T10:20:34;98054.59;;;9.04;74.29
3260;BME280;68938;48.150;14.004;2023-12-20T10:23:01;98042.78;;;9.00;73.85
3260;BME280;68938;48.150;14.004;2023-12-20T10:25:28;98046.03;;;9.05;73.32
3260;BME280;68938;48.150;14.004;2023-12-20T10:28:15;98041.97;;;8.98;73.25
3260;BME280;68938;48.150;14.004;2023-12-20T10:30:42;98037.06;;;8.89;73.23
3260;BME280;68938;48.150;14.004;2023-12-20T10:33:10;98040.47;;;8.89;73.18
3260;BME280;68938;48.150;14.004;2023-12-20T10:35:39;98027.97;;;9.13;72.56
3260;BME280;68938;48.150;14.004;2023-12-20T10:38:12;98028.75;;;9.15;72.23
3260;BME280;68938;48.150;14.004;2023-12-20T10:40:39;98019.81;;;8.97;73.24
3260;BME280;68938;48.150;14.004;2023-12-20T10:43:06;98020.50;;;9.04;72.35
3260;BME280;68938;48.150;14.004;2023-12-20T10:45:34;98020.34;;;9.10;72.59
3260;BME280;68938;48.150;14.004;2023-12-20T10:48:02;98017.38;;;9.25;72.11
3260;BME280;68938;48.150;14.004;2023-12-20T10:50:30;98026.31;;;9.10;72.82
3260;BME280;68938;48.150;14.004;2023-12-20T10:52:58;98025.81;;;9.29;72.13
3260;BME280;68938;48.150;14.004;2023-12-20T10:55:26;98019.81;;;9.30;71.89
3260;BME280;68938;48.150;14.004;2023-12-20T10:58:00;98019.72;;;9.33;72.05
3260;BME280;68938;48.150;14.004;2023-12-20T11:00:29;98016.19;;;9.38;71.47
3260;BME280;68938;48.150;14.004;2023-12-20T11:03:00;98010.16;;;9.41;71.42
3260;BME280;68938;48.150;14.004;2023-12-20T11:05:46;98005.09;;;9.38;71.33
3260;BME280;68938;48.150;14.004;2023-12-20T11:08:38;98004.75;;;9.19;71.88
3260;BME280;68938;48.150;14.004;2023-12-20T11:11:37;98011.28;;;9.31;72.15
3260;BME280;68938;48.150;14.004;2023-12-20T11:14:29;98015.56;;;9.30;72.00
3260;BME280;68938;48.150;14.004;2023-12-20T11:17:08;98015.16;;;9.13;72.67
3260;BME280;68938;48.150;14.004;2023-12-20T11:19:38;98005.38;;;8.94;71.94
3260;BME280;68938;48.150;14.004;2023-12-20T11:22:10;98005.03;;;8.74;72.06
3260;BME280;68938;48.150;14.004;2023-12-20T11:24:44;97991.50;;;8.70;71.85
3260;BME280;68938;48.150;14.004;2023-12-20T11:27:13;97997.91;;;8.87;71.22
3260;BME280;68938;48.150;14.004;2023-12-20T11:29:41;98005.19;;;8.68;72.25
3260;BME280;68938;48.150;14.004;2023-12-20T11:34:55;98003.28;;;8.40;72.74
3260;BME280;68938;48.150;14.004;2023-12-20T11:37:29;98008.25;;;8.46;73.22
3260;BME280;68938;48.150;14.004;2023-12-20T11:40:02;97999.97;;;8.72;72.11
3260;BME280;68938;48.150;14.004;2023-12-20T11:42:33;98005.03;;;8.74;72.17
3260;BME280;68938;48.150;14.004;2023-12-20T11:45:05;97997.31;;;8.77;71.94
3260;BME280;68938;48.150;14.004;2023-12-20T11:47:36;97998.28;;;8.71;72.18
3260;BME280;68938;48.150;14.004;2023-12-20T11:50:03;98000.31;;;8.59;72.79
3260;BME280;68938;48.150;14.004;2023-12-20T11:52:31;97992.31;;;8.72;72.11
3260;BME280;68938;48.150;14.004;2023-12-20T11:54:58;97988.88;;;8.36;73.13
3260;BME280;68938;48.150;14.004;2023-12-20T11:57:25;98000.75;;;8.40;74.38
3260;BME280;68938;48.150;14.004;2023-12-20T11:59:54;97984.16;;;8.19;75.04
3260;BME280;68938;48.150;14.004;2023-12-20T12:02:21;97993.38;;;7.88;76.40
3260;BME280;68938;48.150;14.004;2023-12-20T12:04:49;97974.75;;;8.21;75.92
3260;BME280;68938;48.150;14.004;2023-12-20T12:07:17;97975.94;;;8.45;74.92
3260;BME280;68938;48.150;14.004;2023-12-20T12:09:44;97974.78;;;8.57;73.74
3260;BME280;68938;48.150;14.004;2023-12-20T12:12:12;97977.78;;;8.37;74.59
3260;BME280;68938;48.150;14.004;2023-12-20T12:14:40;97978.22;;;8.19;75.69
3260;BME280;68938;48.150;14.004;2023-12-20T12:17:13;97977.66;;;8.43;74.21
3260;BME280;68938;48.150;14.004;2023-12-20T12:19:41;97976.91;;;8.40;75.10
3260;BME280;68938;48.150;14.004;2023-12-20T12:22:15;97975.22;;;8.37;74.92
3260;BME280;68938;48.150;14.004;2023-12-20T12:24:44;97963.28;;;8.39;74.60
3260;BME280;68938;48.150;14.004;2023-12-20T12:27:15;97966.16;;;8.61;73.93
3260;BME280;68938;48.150;14.004;2023-12-20T12:30:04;97959.34;;;8.24;75.16
3260;BME280;68938;48.150;14.004;2023-12-20T12:32:32;97966.25;;;8.58;74.27
3260;BME280;68938;48.150;14.004;2023-12-20T12:34:59;97965.16;;;8.68;73.58
3260;BME280;68938;48.150;14.004;2023-12-20T12:37:27;97963.81;;;8.86;73.32
3260;BME280;68938;48.150;14.004;2023-12-20T12:39:54;97957.97;;;8.81;72.28
3260;BME280;68938;48.150;14.004;2023-12-20T12:42:20;97964.41;;;8.63;73.63
3260;BME280;68938;48.150;14.004;2023-12-20T12:44:47;97960.44;;;8.51;73.71
3260;BME280;68938;48.150;14.004;2023-12-20T12:47:14;97959.06;;;8.72;72.65
3260;BME280;68938;48.150;14.004;2023-12-20T12:49:41;97961.00;;;8.63;72.65
3260;BME280;68938;48.150;14.004;2023-12-20T12:52:08;97947.94;;;8.39;72.82
3260;BME280;68938;48.150;14.004;2023-12-20T12:54:35;97954.81;;;8.36;73.72
3260;BME280;68938;48.150;14.004;2023-12-20T12:57:02;97955.28;;;8.53;73.39
3260;BME280;68938;48.150;14.004;2023-12-20T12:59:29;97952.31;;;8.70;72.62
3260;BME280;68938;48.150;14.004;2023-12-20T13:01:56;97947.03;;;8.76;72.10
3260;BME280;68938;48.150;14.004;2023-12-20T13:04:23;97932.75;;;8.69;72.57
3260;BME280;68938;48.150;14.004;2023-12-20T13:06:50;97935.25;;;8.70;72.45
3260;BME280;68938;48.150;14.004;2023-12-20T13:09:17;97930.97;;;8.71;71.43
3260;BME280;68938;48.150;14.004;2023-12-20T13:11:44;97929.63;;;8.90;71.10
3260;BME280;68938;48.150;14.004;2023-12-20T13:14:11;97922.47;;;9.01;70.72
3260;BME280;68938;48.150;14.004;2023-12-20T13:16:38;97924.88;;;9.08;69.93